createdAt,value
2022-10-11T00:02:20.338Z,10.90
2022-10-11T00:05:22.429Z,11.00
2022-10-11T00:08:23.983Z,12.50
2022-10-11T00:11:26.054Z,10.55
2022-10-11T00:14:28.263Z,9.57
2022-10-11T00:17:29.891Z,9.52
2022-10-11T00:20:31.975Z,9.00
2022-10-11T00:23:33.892Z,8.50
2022-10-11T00:26:35.576Z,9.35
2022-10-11T00:29:38.032Z,9.32
2022-10-11T00:32:40.157Z,8.82
2022-10-11T00:35:42.432Z,9.18
2022-10-11T00:38:45.609Z,9.25
2022-10-11T00:41:49.223Z,9.45
2022-10-11T00:44:51.635Z,10.18
2022-10-11T00:48:01.138Z,8.85
2022-10-11T00:51:07.972Z,9.55
2022-10-11T00:54:15.618Z,8.40
2022-10-11T00:57:21.801Z,8.50
2022-10-11T01:00:23.421Z,9.05
2022-10-11T01:03:26.808Z,9.10
2022-10-11T01:06:28.764Z,8.80
2022-10-11T01:09:31.333Z,8.73
2022-10-11T01:12:33.498Z,9.15
2022-10-11T01:15:52.374Z,10.75
2022-10-11T01:19:17.702Z,10.80
2022-10-11T01:22:22.529Z,10.35
2022-10-11T01:25:33.240Z,11.18
2022-10-11T01:29:11.135Z,9.75
2022-10-11T01:32:34.003Z,10.10
2022-10-11T01:35:46.996Z,9.70
2022-10-11T01:38:58.325Z,10.50
2022-10-11T01:42:03.536Z,9.70
2022-10-11T01:45:09.812Z,10.20
2022-10-11T01:48:14.263Z,10.18
2022-10-11T01:51:16.328Z,10.90
2022-10-11T01:55:08.223Z,9.43
2022-10-11T02:01:56.949Z,11.88
2022-10-11T02:05:18.320Z,13.80
2022-10-11T02:08:38.877Z,17.30
2022-10-11T02:11:41.636Z,17.40
2022-10-11T02:14:47.831Z,15.43
2022-10-11T02:17:54.516Z,14.15
2022-10-11T02:21:01.240Z,14.75
2022-10-11T02:24:11.688Z,13.18
2022-10-11T02:27:15.234Z,13.68
2022-10-11T02:30:17.390Z,17.40
2022-10-11T02:33:26.545Z,17.83
2022-10-11T02:36:43.771Z,15.25
2022-10-11T02:40:04.159Z,13.32
2022-10-11T02:43:13.456Z,12.48
2022-10-11T02:46:17.783Z,10.55
2022-10-11T02:49:21.391Z,10.02
2022-10-11T02:52:23.307Z,10.00
2022-10-11T02:55:24.919Z,10.60
2022-10-11T02:58:26.920Z,9.90
2022-10-11T03:01:28.611Z,10.27
2022-10-11T03:04:30.563Z,10.98
2022-10-11T03:07:32.152Z,10.43
2022-10-11T03:10:35.177Z,10.50
2022-10-11T03:13:36.806Z,10.88
2022-10-11T03:16:38.823Z,10.68
2022-10-11T03:19:40.441Z,15.38
2022-10-11T03:22:42.067Z,10.13
2022-10-11T03:25:46.264Z,8.98
2022-10-11T03:28:48.062Z,9.55
2022-10-11T03:31:49.647Z,9.40
2022-10-11T03:34:51.649Z,9.25
2022-10-11T03:37:53.229Z,10.38
2022-10-11T03:40:55.258Z,10.77
2022-10-11T03:43:56.902Z,10.68
2022-10-11T03:46:58.892Z,9.88
2022-10-11T03:50:00.629Z,10.07
2022-10-11T03:53:02.781Z,10.50
2022-10-11T03:56:08.259Z,11.30
2022-10-11T03:59:11.065Z,10.77
2022-10-11T04:02:12.666Z,9.98
2022-10-11T04:05:14.720Z,10.23
2022-10-11T04:08:16.295Z,10.07
2022-10-11T04:11:18.267Z,10.38
2022-10-11T04:14:20.214Z,11.00
2022-10-11T04:17:22.136Z,10.45
2022-10-11T04:20:23.999Z,10.55
2022-10-11T04:23:25.683Z,11.15
2022-10-11T04:26:27.661Z,10.20
2022-10-11T04:29:32.537Z,9.55
2022-10-11T04:32:34.985Z,10.35
2022-10-11T04:35:36.662Z,10.23
2022-10-11T04:38:38.219Z,9.70
2022-10-11T04:41:39.811Z,10.45
2022-10-11T04:44:41.814Z,10.52
2022-10-11T04:47:43.360Z,10.90
2022-10-11T04:50:45.813Z,10.32
2022-10-11T04:53:48.746Z,12.70
2022-10-11T04:56:50.497Z,10.85
2022-10-11T04:59:52.297Z,10.68
2022-10-11T05:02:54.174Z,10.48
2022-10-11T05:05:56.156Z,10.68
2022-10-11T05:08:57.738Z,10.45
2022-10-11T05:11:59.295Z,10.38
2022-10-11T05:15:01.403Z,10.57
2022-10-11T05:18:03.026Z,11.55
2022-10-11T05:21:14.411Z,10.80
2022-10-11T05:24:16.048Z,10.73
2022-10-11T05:27:17.841Z,11.05
2022-10-11T05:30:19.621Z,10.52
2022-10-11T05:33:21.877Z,11.00
2022-10-11T05:36:23.452Z,17.67
2022-10-11T05:39:25.254Z,15.73
2022-10-11T05:42:26.833Z,11.30
2022-10-11T05:45:28.729Z,9.43
2022-10-11T05:48:30.411Z,10.23
2022-10-11T05:51:32.445Z,11.55
2022-10-11T05:54:34.070Z,10.93
2022-10-11T05:57:35.634Z,9.80
2022-10-11T06:00:38.448Z,9.27
2022-10-11T06:03:39.982Z,9.25
2022-10-11T06:06:41.563Z,8.90
2022-10-11T06:09:43.542Z,8.65
2022-10-11T06:12:45.194Z,9.45
2022-10-11T06:15:46.848Z,8.43
2022-10-11T06:18:48.767Z,8.85
2022-10-11T06:21:50.448Z,8.65
2022-10-11T06:24:52.123Z,8.77
2022-10-11T06:27:53.806Z,8.80
2022-10-11T06:30:56.696Z,8.70
2022-10-11T06:33:59.469Z,9.75
2022-10-11T06:37:01.334Z,9.75
2022-10-11T06:40:03.563Z,9.48
2022-10-11T06:43:05.345Z,11.25
2022-10-11T06:46:07.583Z,9.70
2022-10-11T06:49:09.666Z,10.02
2022-10-11T06:52:11.268Z,9.52
2022-10-11T06:55:13.300Z,9.65
2022-10-11T06:58:14.873Z,10.02
2022-10-11T07:01:19.190Z,9.75
2022-10-11T07:04:21.032Z,9.43
2022-10-11T07:07:22.681Z,9.32
2022-10-11T07:10:24.206Z,8.50
2022-10-11T07:13:26.135Z,8.48
2022-10-11T07:16:28.722Z,9.02
2022-10-11T07:19:30.429Z,8.40
2022-10-11T07:22:31.992Z,8.60
2022-10-11T07:25:33.937Z,7.93
2022-10-11T07:28:37.533Z,8.43
2022-10-11T07:31:41.341Z,8.68
2022-10-11T07:34:43.594Z,8.73
2022-10-11T07:37:45.196Z,8.95
2022-10-11T07:40:46.983Z,8.73
2022-10-11T07:43:50.405Z,9.23
2022-10-11T07:46:52.329Z,8.45
2022-10-11T07:49:54.360Z,8.32
2022-10-11T07:52:55.969Z,8.95
2022-10-11T07:56:02.758Z,9.05
2022-10-11T07:59:04.878Z,8.55
2022-10-11T08:02:06.638Z,8.13
2022-10-11T08:05:08.576Z,7.72
2022-10-11T08:08:10.496Z,8.98
2022-10-11T08:11:21.046Z,8.93
2022-10-11T08:14:22.670Z,9.18
2022-10-11T08:17:25.068Z,9.43
2022-10-11T08:20:27.101Z,8.45
2022-10-11T08:23:28.736Z,9.02
2022-10-11T08:26:31.278Z,7.53
2022-10-11T08:29:33.171Z,8.38
2022-10-11T08:32:35.029Z,8.48
2022-10-11T08:35:36.743Z,7.15
2022-10-11T08:38:39.177Z,7.58
2022-10-11T08:42:00.770Z,7.30
2022-10-11T08:45:14.041Z,7.75
2022-10-11T08:48:32.583Z,10.02
2022-10-11T08:51:50.947Z,6.15
2022-10-11T08:55:11.129Z,5.60
2022-10-11T08:58:16.257Z,6.72
2022-10-11T09:01:24.027Z,6.60
2022-10-11T09:04:26.077Z,6.35
2022-10-11T09:07:49.057Z,7.07
2022-10-11T09:10:59.691Z,6.22
2022-10-11T09:14:24.399Z,7.22
2022-10-11T09:18:13.735Z,6.20
2022-10-11T09:21:52.956Z,6.45
2022-10-11T09:25:16.368Z,5.47
2022-10-11T09:28:34.007Z,5.87
2022-10-11T09:31:36.061Z,4.80
2022-10-11T09:34:38.420Z,4.93
2022-10-11T09:37:59.461Z,5.30
2022-10-11T09:41:25.571Z,5.07
2022-10-11T09:44:29.742Z,4.90
2022-10-11T09:47:33.073Z,4.95
2022-10-11T09:50:35.208Z,6.10
2022-10-11T09:54:05.327Z,5.53
2022-10-11T09:57:22.106Z,5.45
2022-10-11T10:00:26.644Z,5.77
2022-10-11T10:03:31.388Z,5.45
2022-10-11T10:06:33.285Z,5.30
2022-10-11T10:09:34.905Z,5.55
2022-10-11T10:12:36.352Z,5.90
2022-10-11T10:15:38.378Z,5.55
2022-10-11T10:18:48.975Z,4.93
2022-10-11T10:21:54.111Z,5.80
2022-10-11T10:24:57.271Z,5.35
2022-10-11T10:28:01.927Z,5.03
2022-10-11T10:31:03.506Z,5.70
2022-10-11T10:34:14.444Z,5.90
2022-10-11T10:37:28.119Z,5.78
2022-10-11T10:40:40.530Z,5.57
2022-10-11T10:43:45.825Z,5.20
2022-10-11T10:46:56.405Z,6.93
2022-10-11T10:50:17.131Z,5.25
2022-10-11T10:53:24.540Z,6.25
2022-10-11T10:56:34.739Z,5.03
2022-10-11T10:59:36.222Z,4.85
2022-10-11T11:02:57.687Z,5.70
2022-10-11T11:06:57.585Z,5.35
2022-10-11T11:10:20.192Z,5.50
2022-10-11T11:13:39.326Z,5.50
2022-10-11T11:17:03.594Z,5.30
2022-10-11T11:20:25.038Z,5.18
2022-10-11T11:23:48.059Z,5.57
2022-10-11T11:27:04.370Z,5.30
2022-10-11T11:30:16.715Z,5.37
2022-10-11T11:33:36.117Z,6.20
2022-10-11T11:36:48.817Z,5.90
2022-10-11T11:39:55.909Z,5.53
2022-10-11T11:46:20.674Z,5.80
2022-10-11T11:49:35.753Z,5.22
2022-10-11T11:52:44.197Z,6.00
2022-10-11T11:55:54.281Z,5.85
2022-10-11T11:59:10.231Z,5.37
2022-10-11T12:02:46.188Z,5.72
2022-10-11T12:06:12.627Z,6.25
2022-10-11T12:09:17.142Z,5.47
2022-10-11T12:12:37.568Z,6.22
2022-10-11T12:15:39.625Z,5.80
2022-10-11T12:18:56.391Z,6.25
2022-10-11T12:22:37.891Z,5.30
2022-10-11T12:25:42.240Z,6.37
2022-10-11T12:28:43.804Z,15.70
2022-10-11T12:31:51.072Z,7.65
2022-10-11T12:35:31.191Z,5.95
2022-10-11T12:38:40.331Z,7.03
2022-10-11T12:41:48.833Z,6.37
2022-10-11T12:45:12.841Z,6.57
2022-10-11T12:48:41.595Z,7.40
2022-10-11T12:52:04.500Z,7.20
2022-10-11T12:55:31.051Z,7.10
2022-10-11T12:58:46.708Z,6.72
2022-10-11T13:01:52.469Z,11.63
2022-10-11T13:05:15.467Z,7.12
2022-10-11T13:08:43.414Z,6.53
2022-10-11T13:11:54.329Z,7.45
2022-10-11T13:15:05.607Z,6.87
2022-10-11T13:18:14.036Z,7.45
2022-10-11T13:21:26.963Z,7.35
2022-10-11T13:24:39.969Z,6.32
2022-10-11T13:27:42.388Z,7.78
2022-10-11T13:30:47.741Z,6.60
2022-10-11T13:33:55.016Z,6.75
2022-10-11T13:36:58.669Z,6.28
2022-10-11T13:40:00.667Z,6.97
2022-10-11T13:43:05.616Z,8.23
2022-10-11T13:46:17.515Z,6.97
2022-10-11T13:49:40.380Z,7.65
2022-10-11T13:53:01.957Z,8.25
2022-10-11T13:56:07.885Z,8.82
2022-10-11T13:59:22.463Z,9.00
2022-10-11T14:02:32.730Z,8.20
2022-10-11T14:05:34.380Z,8.10
2022-10-11T14:08:45.442Z,9.05
2022-10-11T14:11:48.054Z,7.55
2022-10-11T14:14:50.338Z,8.13
2022-10-11T14:17:52.141Z,9.15
2022-10-11T14:20:53.765Z,8.63
2022-10-11T14:24:00.739Z,8.52
2022-10-11T14:27:05.647Z,7.37
2022-10-11T14:30:30.425Z,8.07
2022-10-11T14:33:33.387Z,7.95
2022-10-11T14:36:35.165Z,11.02
2022-10-11T14:39:37.283Z,13.77
2022-10-11T14:42:38.890Z,21.33
2022-10-11T14:45:40.824Z,17.95
2022-10-11T14:48:55.116Z,18.40
2022-10-11T14:51:59.014Z,8.68
2022-10-11T14:55:00.577Z,8.95
2022-10-11T14:58:02.518Z,10.20
2022-10-11T15:01:04.153Z,10.65
2022-10-11T15:04:05.838Z,10.38
2022-10-11T15:07:07.984Z,10.13
2022-10-11T15:10:23.532Z,9.90
2022-10-11T15:13:25.534Z,9.88
2022-10-11T15:16:27.145Z,9.07
2022-10-11T15:19:28.698Z,9.00
2022-10-11T15:22:30.724Z,9.38
2022-10-11T15:25:32.573Z,8.65
2022-10-11T15:28:34.466Z,8.85
2022-10-11T15:31:36.111Z,11.52
2022-10-11T15:34:37.787Z,9.50
2022-10-11T15:37:40.018Z,8.82
2022-10-11T15:40:41.795Z,9.05
2022-10-11T15:43:45.027Z,8.60
2022-10-11T15:46:46.672Z,9.63
2022-10-11T15:49:48.257Z,8.88
2022-10-11T15:52:52.048Z,9.27
2022-10-11T15:55:55.366Z,8.82
2022-10-11T15:58:56.941Z,9.00
2022-10-11T16:01:58.559Z,8.95
2022-10-11T16:05:00.522Z,9.20
2022-10-11T16:08:02.124Z,9.45
2022-10-11T16:11:05.955Z,9.13
2022-10-11T16:14:07.564Z,9.40
2022-10-11T16:17:09.121Z,10.95
2022-10-11T16:20:10.742Z,10.93
2022-10-11T16:23:13.646Z,12.77
2022-10-11T16:26:16.802Z,15.52
2022-10-11T16:29:18.426Z,15.88
2022-10-11T16:32:20.431Z,16.20
2022-10-11T16:35:22.198Z,18.05
2022-10-11T16:38:24.030Z,19.30
2022-10-11T16:41:25.633Z,20.70
2022-10-11T16:44:28.288Z,21.08
2022-10-11T16:47:30.594Z,23.48
2022-10-11T16:50:36.850Z,29.92
2022-10-11T16:53:40.772Z,38.28
2022-10-11T16:56:42.593Z,60.42
2022-10-11T16:59:44.329Z,58.42
2022-10-11T17:02:46.186Z,57.90
2022-10-11T17:05:47.754Z,53.28
2022-10-11T17:08:49.407Z,52.95
2022-10-11T17:11:51.628Z,51.00
2022-10-11T17:14:53.325Z,45.88
2022-10-11T17:17:55.829Z,41.67
2022-10-11T17:21:06.460Z,43.85
2022-10-11T17:24:08.530Z,47.15
2022-10-11T17:27:10.476Z,49.40
2022-10-11T17:30:12.640Z,86.82
2022-10-11T17:33:14.222Z,100.85
2022-10-11T17:36:34.619Z,87.05
2022-10-11T17:39:36.810Z,85.87
2022-10-11T17:42:38.745Z,86.00
2022-10-11T17:45:40.588Z,82.47
2022-10-11T17:48:42.534Z,81.78
2022-10-11T17:51:44.880Z,75.43
2022-10-11T17:54:46.733Z,69.78
2022-10-11T17:57:48.671Z,67.78
2022-10-11T18:00:51.284Z,62.78
2022-10-11T18:04:01.439Z,66.10
2022-10-11T18:07:03.776Z,63.97
2022-10-11T18:10:06.398Z,60.25
2022-10-11T18:13:11.978Z,57.35
2022-10-11T18:16:20.287Z,54.35
2022-10-11T18:19:21.989Z,52.95
2022-10-11T18:22:23.989Z,52.75
2022-10-11T18:25:26.063Z,51.30
2022-10-11T18:28:28.900Z,49.90
2022-10-11T18:31:32.335Z,47.55
2022-10-11T18:34:34.302Z,47.42
2022-10-11T18:37:36.110Z,45.10
2022-10-11T18:40:46.149Z,43.28
2022-10-11T18:43:56.745Z,44.90
2022-10-11T18:46:59.589Z,45.58
2022-10-11T18:50:01.956Z,46.03
2022-10-11T18:56:10.857Z,44.35
2022-10-11T18:59:13.108Z,44.63
2022-10-11T19:02:15.380Z,45.22
2022-10-11T19:05:17.410Z,45.03
2022-10-11T19:08:19.512Z,43.10
2022-10-11T19:11:23.264Z,42.47
2022-10-11T19:14:29.057Z,41.25
2022-10-11T19:17:31.329Z,37.80
2022-10-11T19:20:36.080Z,33.13
2022-10-11T19:23:43.961Z,25.62
2022-10-11T19:26:46.797Z,19.85
2022-10-11T19:29:48.823Z,16.45
2022-10-11T19:32:51.281Z,16.92
2022-10-11T19:36:01.055Z,19.05
2022-10-11T19:39:04.332Z,17.80
2022-10-11T19:42:06.430Z,14.30
2022-10-11T19:45:09.561Z,15.73
2022-10-11T19:48:12.094Z,15.55
2022-10-11T19:51:20.009Z,14.90
2022-10-11T19:54:22.320Z,15.02
2022-10-11T19:57:24.731Z,14.82
2022-10-11T20:00:26.805Z,16.80
2022-10-11T20:03:28.949Z,16.98
2022-10-11T20:06:37.911Z,21.62
2022-10-11T20:09:40.355Z,19.77
2022-10-11T20:12:45.793Z,18.98
2022-10-11T20:15:47.632Z,18.37
2022-10-11T20:18:49.550Z,18.62
2022-10-11T20:21:52.678Z,17.55
2022-10-11T20:24:54.514Z,18.27
2022-10-11T20:27:56.528Z,20.55
2022-10-11T20:30:59.039Z,21.67
2022-10-11T20:34:05.094Z,22.23
2022-10-11T20:37:07.108Z,26.08
2022-10-11T20:40:10.058Z,25.00
2022-10-11T20:43:11.717Z,26.55
2022-10-11T20:46:15.924Z,29.80
2022-10-11T20:49:20.197Z,28.83
2022-10-11T20:52:22.206Z,28.73
2022-10-11T20:55:24.094Z,27.35
2022-10-11T20:58:25.799Z,27.10
2022-10-11T21:01:49.219Z,28.05
2022-10-11T21:04:51.488Z,28.65
2022-10-11T21:07:53.205Z,26.12
2022-10-11T21:10:55.554Z,26.30
2022-10-11T21:13:58.805Z,28.52
2022-10-11T21:17:00.355Z,27.20
2022-10-11T21:20:04.306Z,25.05
2022-10-11T21:23:06.036Z,24.25
2022-10-11T21:26:10.808Z,24.83
2022-10-11T21:29:12.589Z,22.75
2022-10-11T21:32:14.638Z,23.02
2022-10-11T21:35:17.152Z,22.37
2022-10-11T21:38:18.700Z,21.62
2022-10-11T21:41:31.367Z,23.27
2022-10-11T21:44:36.372Z,22.33
2022-10-11T21:47:39.083Z,23.35
2022-10-11T21:50:41.204Z,22.55
2022-10-11T21:53:42.768Z,22.85
2022-10-11T21:56:44.863Z,23.25
2022-10-11T21:59:46.408Z,23.00
2022-10-11T22:02:48.024Z,24.35
2022-10-11T22:05:49.897Z,23.02
2022-10-11T22:08:52.818Z,24.90
2022-10-11T22:11:54.445Z,23.27
2022-10-11T22:14:56.042Z,24.17
2022-10-11T22:17:57.864Z,23.05
2022-10-11T22:21:08.730Z,23.98
2022-10-11T22:24:10.332Z,22.87
2022-10-11T22:27:12.151Z,22.75
2022-10-11T22:30:13.716Z,21.42
2022-10-11T22:33:17.003Z,23.95
2022-10-11T22:36:19.441Z,24.75
2022-10-11T22:39:21.345Z,25.58
2022-10-11T22:42:26.852Z,27.58
2022-10-11T22:45:29.370Z,25.50
2022-10-11T22:48:31.439Z,24.45
2022-10-11T22:51:33.023Z,22.55
2022-10-11T22:54:35.051Z,23.48
2022-10-11T22:57:37.105Z,22.77
2022-10-11T23:00:39.707Z,21.70
2022-10-11T23:03:41.584Z,22.92
2022-10-11T23:06:44.421Z,22.35
2022-10-11T23:09:46.061Z,20.92
2022-10-11T23:12:47.660Z,21.10
2022-10-11T23:15:49.672Z,21.23
2022-10-11T23:18:55.248Z,19.40
2022-10-11T23:21:57.250Z,20.50
2022-10-11T23:24:58.874Z,19.98
2022-10-11T23:28:01.709Z,19.40
2022-10-11T23:31:08.749Z,18.92
2022-10-11T23:34:10.325Z,20.15
2022-10-11T23:37:12.148Z,20.27
2022-10-11T23:40:13.719Z,19.08
2022-10-11T23:43:15.650Z,19.67
2022-10-11T23:46:17.329Z,17.92
2022-10-11T23:49:19.149Z,19.60
2022-10-11T23:52:20.968Z,21.40
2022-10-11T23:55:23.077Z,21.52
2022-10-11T23:58:24.777Z,22.65
